Aviation Digital Data Service (ADDS)

Output produced by METARs form (2320 UTC 23 May 2022)
found at http://www.aviationweather.gov/metar/data/
 
WBGB 232300Z VRB02KT 9999 FEW003 26/25 Q1009
TAF WBGB 232300Z 2400/2500 34005KT 9999 FEW016
       
WMKB 232300Z VRB02KT 9000 FEW020 26/25 Q1008 NOSIG
TAF WMKB 232300Z 2400/2500 07003KT 9000 FEW020 
     BECMG 2404/2406 31006KT
       
WMKE 232300Z 00000KT 9999 FEW007 SCT022 25/24 Q1009
TAF WMKE 232300Z 2400/2500 14006KT 9999 FEW017
       
TAF WMAP 232300Z 2400/2424 VRB02KT 9999 FEW018 
     TEMPO 2407/2411 4000 TSRA FEW017CB SCT018
       
WBKK 232300Z 12003KT 090V150 9999 FEW014 26/24 Q1009 NOSIG
TAF WBKK 232300Z 2400/2500 30005KT 9999 FEW014 
     BECMG 2410/2412 11006KT
       
WMKK 232300Z VRB02KT 9000 FEW010 26/24 Q1008 NOSIG
TAF WMKK 232300Z 2400/2506 22006KT 9999 FEW018 
     PROB30 
     TEMPO 2408/2412 5000 TSRA FEW017CB SCT018
       
WMKD 232300Z 00000KT 9000 FEW009 25/24 Q1009 NOSIG
WBGG 232300Z VRB02KT 9999 FEW020 24/24 Q1009 NOSIG
TAF WBGG 232300Z 2400/2500 13005KT 9999 SCT020
       
WBKL 232300Z 00000KT 9999 FEW012 SCT035 28/26 Q1010
TAF WBKL 232300Z 2400/2500 VRB03KT 9999 FEW014
       
WMKL 232300Z VRB02KT 9999 FEW026 26/24 Q1008
TAF WMKL 232300Z 2400/2500 VRB03KT 9999 FEW020 
     BECMG 2405/2407 26006KT 
     BECMG 2410/2412 VRB03KT FEW026 
     TEMPO 2420/2500 5000 TSRA FEW010 FEW017CB
       
WMKM 232300Z VRB01KT 9999 FEW028 25/23 Q1009
TAF WMKM 232300Z 2400/2424 18006KT 9999 FEW020
       
WBGR 232300Z 11005KT 9999 SCT016 27/26 Q1009
TAF WBGR 232300Z 2400/2500 35005KT 9999 FEW016
       
WMKP 232300Z 00000KT 9000 FEW020 28/26 Q1009 NOSIG
TAF WMKP 232300Z 2400/2500 VRB03KT 8000 FEW020 
     BECMG 2404/2406 22006KT 9999 
     BECMG 2410/2412 00000KT 8000 FEW025 
     TEMPO 2420/2500 5000 TSRA FEW010 FEW017CB
       
TAF WMBT 232300Z 2400/2500 VRB03KT 9999 FEW020 
     TEMPO 2406/2410 7000 -TSRA FEW017CB
       
WBKS 232300Z 00000KT 9000 FEW015 26/25 Q1010
TAF WBKS 232300Z 2400/2500 15006KT 9999 FEW015
       
WBGS 232300Z VRB03KT 9999 FEW016 25/24 Q1009
TAF WBGS 232300Z 2400/2500 VRB03KT 9999 SCT018
       
WMSA 232300Z VRB02KT 9999 FEW017CB 27/24 Q1009
TAF WMSA 232300Z 2400/2500 25006KT 9999 FEW018 
     TEMPO 2408/2412 4000 TSRA FEW017CB SCT018
       
WMKA 232300Z 00000KT 9000 FEW012 FEW017CB 25/24 Q1008
TAF WMKA 232300Z 2400/2500 VRB03KT 9999 FEW020 
     BECMG 2404/2406 27006KT 
     BECMG 2410/2412 00000KT FEW030 
     TEMPO 2420/2500 5000 TSRA FEW010 FEW017CB
       
WMKI 232300Z 04004KT 360V080 9000 FEW027 26/22 Q1009
TAF WMKI 232300Z 2400/2500 VRB03KT 9999 FEW020 
     PROB30 
     TEMPO 2408/2411 7000 -TSRA FEW017CB
       
WMKJ 232200Z 00000KT 6000 FEW008 24/23 Q1008
TAF WMKJ 232300Z 2400/2500 12005KT 9999 FEW018 
     TEMPO 2406/2410 4000 TSRA FEW017CB SCT018
       
WMKC 232300Z VRB01KT 9000 FEW020 26/25 Q1009
TAF WMKC 232300Z 2400/2500 04006KT 9999 FEW018
       
WMKN 232300Z 00000KT 9999 FEW020 26/25 Q1008
TAF WMKN 232300Z 2400/2500 06006KT 9999 FEW018
       
WBKW 232300Z 00000KT 9999 FEW016 25/24 Q1010
TAF WBKW 232300Z 2400/2500 32005KT 9999 FEW017 
     BECMG 2402/2404 18006KT